createdAt,value
2022-08-23T00:02:23.562Z,26.70
2022-08-23T00:05:07.678Z,26.70
2022-08-23T00:07:38.462Z,26.80
2022-08-23T00:10:06.503Z,26.80
2022-08-23T00:12:33.186Z,26.80
2022-08-23T00:14:59.922Z,26.80
2022-08-23T00:17:34.780Z,26.70
2022-08-23T00:20:08.866Z,26.70
2022-08-23T00:22:36.474Z,26.70
2022-08-23T00:25:03.940Z,26.70
2022-08-23T00:27:30.612Z,26.70
2022-08-23T00:29:58.432Z,26.70
2022-08-23T00:32:36.350Z,26.70
2022-08-23T00:35:04.543Z,26.80
2022-08-23T00:37:32.461Z,26.80
2022-08-23T00:39:59.942Z,26.80
2022-08-23T00:43:08.850Z,26.80
2022-08-23T00:46:09.122Z,26.80
2022-08-23T00:48:38.702Z,26.80
2022-08-23T00:51:09.336Z,26.80
2022-08-23T00:53:38.102Z,26.70
2022-08-23T00:56:08.225Z,26.70
2022-08-23T00:58:35.416Z,26.80
2022-08-23T01:01:02.961Z,26.70
2022-08-23T01:03:31.009Z,26.70
2022-08-23T01:06:24.293Z,26.70
2022-08-23T01:11:45.770Z,26.70
2022-08-23T01:14:15.514Z,26.70
2022-08-23T01:19:32.932Z,26.70
2022-08-23T01:22:22.707Z,26.60
2022-08-23T01:25:08.408Z,26.60
2022-08-23T01:27:36.366Z,26.60
2022-08-23T01:30:05.202Z,26.60
2022-08-23T01:32:33.146Z,26.60
2022-08-23T01:34:59.854Z,26.60
2022-08-23T01:37:26.637Z,26.60
2022-08-23T01:40:11.942Z,26.40
2022-08-23T01:42:41.580Z,26.30
2022-08-23T01:45:12.212Z,26.20
2022-08-23T01:47:39.622Z,26.20
2022-08-23T01:50:08.429Z,26.20
2022-08-23T01:52:36.260Z,26.20
2022-08-23T01:55:03.632Z,26.30
2022-08-23T01:57:31.443Z,26.30
2022-08-23T01:59:58.400Z,26.20
2022-08-23T02:02:25.624Z,26.30
2022-08-23T02:04:55.298Z,26.30
2022-08-23T02:07:25.756Z,26.20
2022-08-23T02:10:10.988Z,26.20
2022-08-23T02:12:41.537Z,26.10
2022-08-23T02:15:08.410Z,26.00
2022-08-23T02:17:35.786Z,26.20
2022-08-23T02:20:05.583Z,26.20
2022-08-23T02:22:32.639Z,26.30
2022-08-23T02:24:59.808Z,26.20
2022-08-23T02:33:13.948Z,26.20
2022-08-23T02:35:42.833Z,26.20
2022-08-23T02:38:27.943Z,26.10
2022-08-23T02:41:01.066Z,26.10
2022-08-23T02:43:46.861Z,26.00
2022-08-23T02:46:32.341Z,26.10
2022-08-23T02:48:58.988Z,26.00
2022-08-23T02:51:26.216Z,25.80
2022-08-23T02:53:54.593Z,26.00
2022-08-23T02:56:22.002Z,25.80
2022-08-23T02:59:07.604Z,25.90
2022-08-23T03:01:35.710Z,25.90
2022-08-23T03:06:48.298Z,26.10
2022-08-23T03:09:15.125Z,26.20
2022-08-23T03:11:45.900Z,26.30
2022-08-23T03:14:13.086Z,26.20
2022-08-23T03:19:24.468Z,26.10
2022-08-23T03:21:51.145Z,26.30
2022-08-23T03:24:17.808Z,26.20
2022-08-23T03:26:45.863Z,26.30
2022-08-23T03:29:12.848Z,26.20
2022-08-23T03:31:39.508Z,26.00
2022-08-23T03:34:06.324Z,25.80
2022-08-23T03:36:33.404Z,25.80
2022-08-23T03:39:00.574Z,26.00
2022-08-23T03:41:27.501Z,26.10
2022-08-23T03:43:54.216Z,26.10
2022-08-23T03:46:24.016Z,26.00
2022-08-23T03:49:14.980Z,25.80
2022-08-23T03:51:41.676Z,25.80
2022-08-23T03:54:08.391Z,25.80
2022-08-23T03:56:37.641Z,25.90
2022-08-23T03:59:08.453Z,26.00
2022-08-23T04:01:36.432Z,26.00
2022-08-23T04:04:04.242Z,26.20
2022-08-23T04:09:16.906Z,26.20
2022-08-23T04:11:44.318Z,26.10
2022-08-23T04:14:11.868Z,26.00
2022-08-23T04:16:39.699Z,26.00
2022-08-23T04:19:08.660Z,26.00
2022-08-23T04:21:37.876Z,26.10
2022-08-23T04:24:05.044Z,26.20
2022-08-23T04:26:31.754Z,26.20
2022-08-23T04:28:59.261Z,26.30
2022-08-23T04:31:27.113Z,26.30
2022-08-23T04:34:13.073Z,26.30
2022-08-23T04:36:44.848Z,26.30
2022-08-23T04:39:21.916Z,26.30
2022-08-23T04:42:07.019Z,26.30
2022-08-23T04:47:40.361Z,26.40
2022-08-23T04:50:08.174Z,26.30
2022-08-23T04:52:34.887Z,26.30
2022-08-23T04:55:01.654Z,26.30
2022-08-23T04:57:28.362Z,26.30
2022-08-23T04:59:55.029Z,26.30
2022-08-23T05:02:21.724Z,26.30
2022-08-23T05:04:48.387Z,26.30
2022-08-23T05:10:00.413Z,26.40
2022-08-23T05:12:27.424Z,26.40
2022-08-23T05:14:54.409Z,26.40
2022-08-23T05:17:21.894Z,26.40
2022-08-23T05:19:48.663Z,26.30
2022-08-23T05:22:15.436Z,26.40
2022-08-23T05:24:42.236Z,26.30
2022-08-23T05:27:13.520Z,26.40
2022-08-23T05:29:40.576Z,26.40
2022-08-23T05:32:08.243Z,26.40
2022-08-23T05:34:34.922Z,26.40
2022-08-23T05:37:01.690Z,26.40
2022-08-23T05:39:36.471Z,26.50
2022-08-23T05:42:04.524Z,26.60
2022-08-23T05:44:34.313Z,26.70
2022-08-23T05:47:03.809Z,26.70
2022-08-23T05:49:57.295Z,26.80
2022-08-23T05:52:24.051Z,26.80
2022-08-23T05:54:50.722Z,26.90
2022-08-23T06:00:40.556Z,27.10
2022-08-23T06:03:20.757Z,27.00
2022-08-23T06:05:47.424Z,27.00
2022-08-23T06:08:14.175Z,27.10
2022-08-23T06:11:00.303Z,27.10
2022-08-23T06:16:14.497Z,27.10
2022-08-23T06:18:42.391Z,27.20
2022-08-23T06:21:10.519Z,27.10
2022-08-23T06:23:37.586Z,27.20
2022-08-23T06:26:15.271Z,27.10
2022-08-23T06:28:50.882Z,27.10
2022-08-23T06:31:38.524Z,27.20
2022-08-23T06:34:05.449Z,27.20
2022-08-23T06:36:32.176Z,27.30
2022-08-23T06:42:22.185Z,27.20
2022-08-23T06:44:53.734Z,27.30
2022-08-23T06:47:23.192Z,27.30
2022-08-23T06:49:51.150Z,27.30
2022-08-23T06:52:25.701Z,27.30
2022-08-23T06:54:52.529Z,27.30
2022-08-23T06:57:20.502Z,27.40
2022-08-23T06:59:48.444Z,27.30
2022-08-23T07:02:15.407Z,27.30
2022-08-23T07:04:42.225Z,27.40
2022-08-23T07:09:54.043Z,27.40
2022-08-23T07:12:21.469Z,27.40
2022-08-23T07:14:48.198Z,27.40
2022-08-23T07:17:14.956Z,27.40
2022-08-23T07:19:44.149Z,27.40
2022-08-23T07:22:11.116Z,27.40
2022-08-23T07:24:37.923Z,27.40
2022-08-23T07:27:14.513Z,27.40
2022-08-23T07:29:44.941Z,27.50
2022-08-23T07:32:12.652Z,27.40
2022-08-23T07:37:25.579Z,27.40
2022-08-23T07:39:52.827Z,27.40
2022-08-23T07:42:25.845Z,27.40
2022-08-23T07:45:00.926Z,27.40
2022-08-23T07:47:29.859Z,27.40
2022-08-23T07:49:59.340Z,27.40
2022-08-23T07:52:36.334Z,27.50
2022-08-23T07:55:26.537Z,27.50
2022-08-23T07:57:53.659Z,27.50
2022-08-23T08:00:22.873Z,27.50
2022-08-23T08:02:49.997Z,27.50
2022-08-23T08:05:24.613Z,27.50
2022-08-23T08:07:52.706Z,27.40
2022-08-23T08:10:22.189Z,27.30
2022-08-23T08:12:49.244Z,27.30
2022-08-23T08:18:17.081Z,27.20
2022-08-23T08:20:45.995Z,27.30
2022-08-23T08:23:13.481Z,27.30
2022-08-23T08:25:41.338Z,27.20
2022-08-23T08:28:15.858Z,27.20
2022-08-23T08:30:42.958Z,27.20
2022-08-23T08:33:09.802Z,27.20
2022-08-23T08:35:38.443Z,27.10
2022-08-23T08:38:05.364Z,27.20
2022-08-23T08:40:35.896Z,27.20
2022-08-23T08:43:21.376Z,27.30
2022-08-23T08:46:07.800Z,27.30
2022-08-23T08:48:55.185Z,27.30
2022-08-23T08:51:24.906Z,27.30
2022-08-23T08:53:52.021Z,27.30
2022-08-23T08:56:21.246Z,27.30
2022-08-23T08:59:06.601Z,27.30
2022-08-23T09:01:34.888Z,27.30
2022-08-23T09:04:02.245Z,27.30
2022-08-23T09:06:42.511Z,27.20
2022-08-23T09:09:12.071Z,27.20
2022-08-23T09:11:59.791Z,27.10
2022-08-23T09:14:38.508Z,27.10
2022-08-23T09:17:18.980Z,27.20
2022-08-23T09:19:46.766Z,27.30
2022-08-23T09:22:14.778Z,27.30
2022-08-23T09:24:41.750Z,27.30
2022-08-23T09:27:09.247Z,27.40
2022-08-23T09:29:37.340Z,27.40
2022-08-23T09:32:06.658Z,27.40
2022-08-23T09:34:35.083Z,27.40
2022-08-23T09:37:09.836Z,27.40
2022-08-23T09:39:38.196Z,27.30
2022-08-23T09:42:09.026Z,27.30
2022-08-23T09:44:43.525Z,27.20
2022-08-23T09:47:15.864Z,27.20
2022-08-23T09:50:01.606Z,27.20
2022-08-23T09:52:34.896Z,27.20
2022-08-23T09:55:03.361Z,27.30
2022-08-23T09:57:32.471Z,27.40
2022-08-23T10:00:22.893Z,27.50
2022-08-23T10:02:50.200Z,27.60
2022-08-23T10:05:17.522Z,27.60
2022-08-23T10:07:52.927Z,27.60
2022-08-23T10:10:28.900Z,27.60
2022-08-23T10:12:56.948Z,27.60
2022-08-23T10:15:26.836Z,27.80
2022-08-23T10:18:05.154Z,27.60
2022-08-23T10:20:32.349Z,27.70
2022-08-23T10:23:06.314Z,27.70
2022-08-23T10:25:35.875Z,27.70
2022-08-23T10:28:24.983Z,27.70
2022-08-23T10:31:18.413Z,27.80
2022-08-23T10:34:04.462Z,27.60
2022-08-23T10:36:38.541Z,27.70
2022-08-23T10:39:14.016Z,27.80
2022-08-23T10:41:48.096Z,27.80
2022-08-23T10:44:16.010Z,27.60
2022-08-23T10:46:47.337Z,27.70
2022-08-23T10:49:15.258Z,27.80
2022-08-23T10:52:05.015Z,27.70
2022-08-23T10:54:35.855Z,27.60
2022-08-23T10:57:04.091Z,27.70
2022-08-23T10:59:32.026Z,27.80
2022-08-23T11:02:08.829Z,27.80
2022-08-23T11:04:42.829Z,27.90
2022-08-23T11:07:37.036Z,27.70
2022-08-23T11:10:16.676Z,27.60
2022-08-23T11:12:52.989Z,27.50
2022-08-23T11:15:25.238Z,27.60
2022-08-23T11:18:00.899Z,27.80
2022-08-23T11:20:46.422Z,27.80
2022-08-23T11:23:31.955Z,27.60
2022-08-23T11:25:58.677Z,27.50
2022-08-23T11:28:25.425Z,27.50
2022-08-23T11:30:57.575Z,27.60
2022-08-23T11:33:32.064Z,27.50
2022-08-23T11:36:08.378Z,27.60
2022-08-23T11:38:47.261Z,27.70
2022-08-23T11:41:19.948Z,27.60
2022-08-23T11:43:48.553Z,27.70
2022-08-23T11:46:35.571Z,27.70
2022-08-23T11:49:06.121Z,27.90
2022-08-23T11:51:37.973Z,27.80
2022-08-23T11:57:00.307Z,27.70
2022-08-23T11:59:57.683Z,27.60
2022-08-23T12:02:47.239Z,27.60
2022-08-23T12:05:22.953Z,27.80
2022-08-23T12:08:02.442Z,27.90
2022-08-23T12:10:51.160Z,27.80
2022-08-23T12:13:36.544Z,27.90
2022-08-23T12:16:16.720Z,27.80
2022-08-23T12:18:47.740Z,27.70
2022-08-23T12:21:17.696Z,27.70
2022-08-23T12:23:47.952Z,27.70
2022-08-23T12:26:24.098Z,27.80
2022-08-23T12:29:14.920Z,27.80
2022-08-23T12:31:47.171Z,27.70
2022-08-23T12:34:47.257Z,27.80
2022-08-23T12:37:31.266Z,27.80
2022-08-23T12:40:00.202Z,27.70
2022-08-23T12:42:29.376Z,27.90
2022-08-23T12:45:33.811Z,27.90
2022-08-23T12:50:55.093Z,27.90
2022-08-23T12:56:20.371Z,27.50
2022-08-23T12:58:52.311Z,27.60
2022-08-23T13:01:30.011Z,27.50
2022-08-23T13:04:01.537Z,27.50
2022-08-23T13:09:22.160Z,27.80
2022-08-23T13:11:49.158Z,27.60
2022-08-23T13:14:33.961Z,27.60
2022-08-23T13:17:31.657Z,27.60
2022-08-23T13:20:01.466Z,27.70
2022-08-23T13:22:29.351Z,27.80
2022-08-23T13:28:13.046Z,27.80
2022-08-23T13:30:39.792Z,27.60
2022-08-23T13:33:09.511Z,27.50
2022-08-23T13:35:38.468Z,27.50
2022-08-23T13:38:10.201Z,27.70
2022-08-23T13:43:24.063Z,27.70
2022-08-23T13:45:55.201Z,27.70
2022-08-23T13:48:32.461Z,27.70
2022-08-23T13:51:18.291Z,27.80
2022-08-23T13:53:46.540Z,27.70
2022-08-23T13:56:13.758Z,27.60
2022-08-23T13:58:40.426Z,27.70
2022-08-23T14:01:13.214Z,27.80
2022-08-23T14:03:39.965Z,27.60
2022-08-23T14:06:06.796Z,27.60
2022-08-23T14:11:17.848Z,27.50
2022-08-23T14:13:45.741Z,27.80
2022-08-23T14:21:49.186Z,27.80
2022-08-23T14:24:18.004Z,27.90
2022-08-23T14:26:50.274Z,27.80
2022-08-23T14:29:19.960Z,27.70
2022-08-23T14:31:49.323Z,27.80
2022-08-23T14:34:16.022Z,28.00
2022-08-23T14:37:21.691Z,27.90
2022-08-23T14:39:30.253Z,28.00
2022-08-23T14:41:57.588Z,27.90
2022-08-23T14:47:08.593Z,27.90
2022-08-23T14:49:36.183Z,27.90
2022-08-23T14:52:03.195Z,28.00
2022-08-23T14:54:30.821Z,28.00
2022-08-23T14:56:58.715Z,27.90
2022-08-23T15:02:12.654Z,27.90
2022-08-23T15:04:39.767Z,27.70
2022-08-23T15:07:17.641Z,27.90
2022-08-23T15:09:45.766Z,27.80
2022-08-23T15:12:57.913Z,27.80
2022-08-23T15:14:59.201Z,27.70
2022-08-23T15:17:30.974Z,27.70
2022-08-23T15:19:58.341Z,27.70
2022-08-23T15:22:26.197Z,27.70
2022-08-23T15:24:52.980Z,27.70
2022-08-23T15:27:20.274Z,27.90
2022-08-23T15:29:47.066Z,27.80
2022-08-23T15:32:13.746Z,27.80
2022-08-23T15:34:59.130Z,27.80
2022-08-23T15:40:11.995Z,27.70
2022-08-23T15:42:38.783Z,27.70
2022-08-23T15:45:05.851Z,27.70
2022-08-23T15:47:41.764Z,27.70
2022-08-23T15:50:08.741Z,27.80
2022-08-23T15:52:35.423Z,27.80
2022-08-23T15:55:02.194Z,27.90
2022-08-23T15:57:29.986Z,27.70
2022-08-23T15:59:57.090Z,27.60
2022-08-23T16:02:24.840Z,27.60
2022-08-23T16:07:35.908Z,27.80
2022-08-23T16:10:03.574Z,27.90
2022-08-23T16:12:30.343Z,28.00
2022-08-23T16:14:57.843Z,27.80
2022-08-23T16:17:43.051Z,27.90
2022-08-23T16:20:12.763Z,27.70
2022-08-23T16:22:39.821Z,27.90
2022-08-23T16:25:06.789Z,27.70
2022-08-23T16:27:35.617Z,27.70
2022-08-23T16:30:03.233Z,27.80
2022-08-23T16:32:29.921Z,27.70
2022-08-23T16:34:57.386Z,27.60
2022-08-23T16:37:24.172Z,27.50
2022-08-23T16:39:50.945Z,27.60
2022-08-23T16:42:20.017Z,27.50
2022-08-23T16:44:46.985Z,27.60
2022-08-23T16:47:33.080Z,27.60
2022-08-23T16:49:59.743Z,27.60
2022-08-23T16:52:34.746Z,27.60
2022-08-23T16:55:06.641Z,27.60
2022-08-23T16:57:52.414Z,27.50
2022-08-23T17:00:19.265Z,27.60
2022-08-23T17:02:46.145Z,27.70
2022-08-23T17:05:15.762Z,27.70
2022-08-23T17:07:42.841Z,27.70
2022-08-23T17:10:11.088Z,27.90
2022-08-23T17:12:39.858Z,27.80
2022-08-23T17:15:11.006Z,27.70
2022-08-23T17:17:37.723Z,27.70
2022-08-23T17:20:06.954Z,27.70
2022-08-23T17:22:34.563Z,27.70
2022-08-23T17:25:04.607Z,27.60
2022-08-23T17:27:33.316Z,27.60
2022-08-23T17:30:00.183Z,27.60
2022-08-23T17:32:28.362Z,27.60
2022-08-23T17:34:56.044Z,27.60
2022-08-23T17:37:23.104Z,27.60
2022-08-23T17:39:53.334Z,27.60
2022-08-23T17:42:21.404Z,27.50
2022-08-23T17:44:50.035Z,27.50
2022-08-23T17:47:17.842Z,27.50
2022-08-23T17:49:46.748Z,27.40
2022-08-23T17:52:13.560Z,27.50
2022-08-23T17:54:41.384Z,27.50
2022-08-23T17:57:10.640Z,27.50
2022-08-23T17:59:37.622Z,27.40
2022-08-23T18:02:05.355Z,27.40
2022-08-23T18:04:33.185Z,27.40
2022-08-23T18:07:00.176Z,27.40
2022-08-23T18:09:27.087Z,27.40
2022-08-23T18:11:54.458Z,27.40
2022-08-23T18:14:22.313Z,27.40
2022-08-23T18:16:49.524Z,27.40
2022-08-23T18:19:17.151Z,27.40
2022-08-23T18:24:29.487Z,27.40
2022-08-23T18:27:19.640Z,27.40
2022-08-23T18:29:51.499Z,27.40
2022-08-23T18:32:18.708Z,27.40
2022-08-23T18:34:45.506Z,27.40
2022-08-23T18:37:18.535Z,27.40
2022-08-23T18:39:45.367Z,27.30
2022-08-23T18:42:12.530Z,27.40
2022-08-23T18:44:39.334Z,27.30
2022-08-23T18:47:45.564Z,27.30
2022-08-23T18:50:15.313Z,27.40
2022-08-23T18:52:47.293Z,27.40
2022-08-23T18:55:16.202Z,27.40
2022-08-23T18:57:43.217Z,27.50
2022-08-23T19:00:11.027Z,27.40
2022-08-23T19:02:38.221Z,27.40
2022-08-23T19:05:05.286Z,27.40
2022-08-23T19:07:32.552Z,27.30
2022-08-23T19:09:59.681Z,27.30
2022-08-23T19:12:26.731Z,27.30
2022-08-23T19:15:00.923Z,27.30
2022-08-23T19:17:27.722Z,27.30
2022-08-23T19:19:56.903Z,27.30
2022-08-23T19:22:23.990Z,27.30
2022-08-23T19:24:53.053Z,27.30
2022-08-23T19:27:19.788Z,27.20
2022-08-23T19:29:46.530Z,27.30
2022-08-23T19:32:14.985Z,27.30
2022-08-23T19:34:42.236Z,27.30
2022-08-23T19:37:14.116Z,27.30
2022-08-23T19:39:50.509Z,27.30
2022-08-23T19:42:17.423Z,27.30
2022-08-23T19:47:30.786Z,27.30
2022-08-23T19:49:58.963Z,27.30
2022-08-23T19:52:25.784Z,27.30
2022-08-23T19:54:53.289Z,27.30
2022-08-23T19:57:20.505Z,27.30
2022-08-23T19:59:47.305Z,27.20
2022-08-23T20:02:16.757Z,27.20
2022-08-23T20:05:02.201Z,27.20
2022-08-23T20:07:29.404Z,27.20
2022-08-23T20:09:58.165Z,27.10
2022-08-23T20:12:27.652Z,27.20
2022-08-23T20:14:55.327Z,27.20
2022-08-23T20:17:25.323Z,27.20
2022-08-23T20:19:52.083Z,27.20
2022-08-23T20:22:37.265Z,27.20
2022-08-23T20:25:05.538Z,27.20
2022-08-23T20:27:33.125Z,27.10
2022-08-23T20:30:20.198Z,27.20
2022-08-23T20:32:47.026Z,27.20
2022-08-23T20:35:14.004Z,27.20
2022-08-23T20:37:41.758Z,27.20
2022-08-23T20:40:15.102Z,27.10
2022-08-23T20:42:42.038Z,27.10
2022-08-23T20:45:09.019Z,27.10
2022-08-23T20:47:36.527Z,27.10
2022-08-23T20:50:06.384Z,27.10
2022-08-23T20:52:34.820Z,27.10
2022-08-23T20:55:02.074Z,27.10
2022-08-23T21:00:13.889Z,27.00
2022-08-23T21:02:41.536Z,26.90
2022-08-23T21:05:08.431Z,26.90
2022-08-23T21:07:35.183Z,27.00
2022-08-23T21:10:03.845Z,27.00
2022-08-23T21:12:30.643Z,26.80
2022-08-23T21:14:57.376Z,26.80
2022-08-23T21:17:24.163Z,26.80
2022-08-23T21:19:51.016Z,26.70
2022-08-23T21:22:17.728Z,26.70
2022-08-23T21:24:44.684Z,26.70
2022-08-23T21:27:11.481Z,26.70
2022-08-23T21:29:38.764Z,26.60
2022-08-23T21:32:07.812Z,26.60
2022-08-23T21:34:34.591Z,26.70
2022-08-23T21:37:01.446Z,26.70
2022-08-23T21:39:28.301Z,26.60
2022-08-23T21:41:56.471Z,26.60
2022-08-23T21:47:11.422Z,26.60
2022-08-23T21:49:40.330Z,26.60
2022-08-23T21:52:26.680Z,26.60
2022-08-23T21:54:53.483Z,26.60
2022-08-23T21:57:20.221Z,26.50
2022-08-23T21:59:47.109Z,26.50
2022-08-23T22:04:58.468Z,26.50
2022-08-23T22:07:25.201Z,26.50
2022-08-23T22:09:51.927Z,26.50
2022-08-23T22:12:37.399Z,26.50
2022-08-23T22:15:23.351Z,26.60
2022-08-23T22:17:51.481Z,26.50
2022-08-23T22:20:36.727Z,26.50
2022-08-23T22:23:04.011Z,26.50
2022-08-23T22:25:30.882Z,26.50
2022-08-23T22:27:57.705Z,26.40
2022-08-23T22:30:25.727Z,26.50
2022-08-23T22:32:52.752Z,26.40
2022-08-23T22:35:19.588Z,26.40
2022-08-23T22:38:14.417Z,26.40
2022-08-23T22:40:34.265Z,26.40
2022-08-23T22:43:01.005Z,26.50
2022-08-23T22:45:27.759Z,26.50
2022-08-23T22:50:38.797Z,26.40
2022-08-23T22:53:05.755Z,26.40
2022-08-23T22:55:32.473Z,26.40
2022-08-23T22:57:59.822Z,26.40
2022-08-23T23:00:26.535Z,26.40
2022-08-23T23:02:55.158Z,26.30
2022-08-23T23:05:21.941Z,26.40
2022-08-23T23:08:06.982Z,26.30
2022-08-23T23:10:35.256Z,26.30
2022-08-23T23:13:02.310Z,26.40
2022-08-23T23:15:29.012Z,26.40
2022-08-23T23:17:55.837Z,26.30
2022-08-23T23:20:39.049Z,26.30
2022-08-23T23:23:07.889Z,26.30
2022-08-23T23:25:35.875Z,26.40
2022-08-23T23:28:03.254Z,26.40
2022-08-23T23:30:30.217Z,26.40
2022-08-23T23:32:57.559Z,26.40
2022-08-23T23:35:24.470Z,26.40
2022-08-23T23:37:52.910Z,26.40
2022-08-23T23:40:38.485Z,26.30
2022-08-23T23:43:05.362Z,26.20
2022-08-23T23:45:32.104Z,26.20
2022-08-23T23:47:59.224Z,26.30
2022-08-23T23:50:27.720Z,26.20
2022-08-23T23:52:54.811Z,26.10
2022-08-23T23:55:22.733Z,26.20
2022-08-23T23:58:08.134Z,26.20
